createdAt,value
2022-12-26T00:01:05.035Z,1005.31
2022-12-26T00:07:24.975Z,1005.29
2022-12-26T00:13:48.006Z,1005.31
2022-12-26T00:20:08.003Z,1005.33
2022-12-26T00:26:30.981Z,1005.4
2022-12-26T00:32:50.972Z,1005.53
2022-12-26T00:39:14.039Z,1005.51
2022-12-26T00:45:34.001Z,1005.4
2022-12-26T00:51:57.023Z,1005.53
2022-12-26T00:58:17.014Z,1005.4
2022-12-26T01:04:39.998Z,1005.49
2022-12-26T01:11:00.032Z,1005.51
2022-12-26T01:17:23.026Z,1005.61
2022-12-26T01:23:43.010Z,1005.8
2022-12-26T01:30:06.027Z,1005.9
2022-12-26T01:36:26.010Z,1005.94
2022-12-26T01:42:49.004Z,1005.96
2022-12-26T01:49:08.997Z,1006.02
2022-12-26T01:55:32.032Z,1006.04
2022-12-26T02:01:52.209Z,1006.06
2022-12-26T02:08:14.999Z,1006.04
2022-12-26T02:14:35.012Z,1006.08
2022-12-26T02:20:57.982Z,1006.12
2022-12-26T02:27:17.989Z,1006.21
2022-12-26T02:33:41.027Z,1006.25
2022-12-26T02:40:01.019Z,1006.21
2022-12-26T02:46:24.085Z,1006.23
2022-12-26T02:52:44.002Z,1006.31
2022-12-26T02:59:06.988Z,1006.31
2022-12-26T03:05:26.991Z,1006.31
2022-12-26T03:11:50.034Z,1006.27
2022-12-26T03:18:09.973Z,1006.29
2022-12-26T03:24:32.992Z,1006.31
2022-12-26T03:30:53.120Z,1006.27
2022-12-26T03:37:16.038Z,1006.18
2022-12-26T03:43:35.974Z,1006.23
2022-12-26T03:49:59.002Z,1006.29
2022-12-26T03:56:19.003Z,1006.35
2022-12-26T04:02:42.035Z,1006.37
2022-12-26T04:09:01.996Z,1006.31
2022-12-26T04:15:25.076Z,1006.37
2022-12-26T04:21:44.997Z,1006.45
2022-12-26T04:28:08.048Z,1006.51
2022-12-26T04:34:27.989Z,1006.55
2022-12-26T04:50:56.526Z,1006.55
2022-12-26T04:57:15.983Z,1006.61
2022-12-26T05:03:39.060Z,1006.65
2022-12-26T05:09:59.005Z,1006.63
2022-12-26T05:16:22.010Z,1006.61
2022-12-26T05:22:41.998Z,1006.61
2022-12-26T05:29:05.034Z,1006.65
2022-12-26T05:35:24.997Z,1006.65
2022-12-26T05:41:47.976Z,1006.63
2022-12-26T05:48:08.033Z,1006.61
2022-12-26T05:54:30.999Z,1006.65
2022-12-26T06:00:50.983Z,1006.65
2022-12-26T06:07:14.002Z,1006.7
2022-12-26T06:13:34.008Z,1006.76
2022-12-26T06:19:57.001Z,1006.88
2022-12-26T06:26:17.038Z,1006.98
2022-12-26T06:32:39.977Z,1007.06
2022-12-26T06:39:00.057Z,1007.17
2022-12-26T06:45:23.007Z,1007.31
2022-12-26T06:51:43.205Z,1007.33
2022-12-26T06:58:05.982Z,1007.25
2022-12-26T07:04:26.034Z,1007.19
2022-12-26T07:10:48.985Z,1007.19
2022-12-26T07:17:08.990Z,1007.23
2022-12-26T07:23:32.031Z,1007.31
2022-12-26T07:29:52.028Z,1007.39
2022-12-26T07:36:14.985Z,1007.52
2022-12-26T07:42:35.037Z,1007.58
2022-12-26T07:48:58.009Z,1007.62
2022-12-26T07:55:17.993Z,1007.64
2022-12-26T08:01:41.177Z,1007.68
2022-12-26T08:08:01.039Z,1007.82
2022-12-26T08:14:24.001Z,1007.98
2022-12-26T08:20:44.010Z,1008.06
2022-12-26T08:27:06.980Z,1008.16
2022-12-26T08:33:26.987Z,1008.22
2022-12-26T08:39:50.019Z,1008.3
2022-12-26T08:46:10.034Z,1008.24
2022-12-26T08:52:33.014Z,1008.18
2022-12-26T08:58:53.019Z,1008.22
2022-12-26T09:05:16.010Z,1008.37
2022-12-26T09:11:36.014Z,1008.36
2022-12-26T09:17:59.022Z,1008.37
2022-12-26T09:24:19.010Z,1008.47
2022-12-26T09:30:42.010Z,1008.53
2022-12-26T09:37:02.049Z,1008.63
2022-12-26T09:43:24.987Z,1008.75
2022-12-26T09:49:45.030Z,1008.86
2022-12-26T09:56:14.198Z,1008.94
2022-12-26T10:19:50.012Z,1009.1
2022-12-26T10:26:09.993Z,1009.14
2022-12-26T10:32:32.997Z,1009.1
2022-12-26T10:38:53.009Z,1009.04
2022-12-26T10:45:16.009Z,1009.06
2022-12-26T10:51:35.992Z,1009.1
2022-12-26T10:57:59.024Z,1009.14
2022-12-26T11:04:26.415Z,1009.06
2022-12-26T11:10:42.022Z,1009.02
2022-12-26T11:17:02.018Z,1009.06
2022-12-26T11:23:25.002Z,1009.08
2022-12-26T11:29:44.989Z,1009.02
2022-12-26T11:36:08.030Z,1009
2022-12-26T11:42:27.980Z,1008.92
2022-12-26T11:48:51.022Z,1008.86
2022-12-26T11:55:10.994Z,1008.9
2022-12-26T12:01:34.062Z,1008.9
2022-12-26T12:07:53.984Z,1008.98
2022-12-26T12:14:17.001Z,1008.98
2022-12-26T12:20:36.999Z,1008.94
2022-12-26T12:27:04.675Z,1008.9
2022-12-26T12:33:20.046Z,1008.86
2022-12-26T12:39:43.002Z,1008.81
2022-12-26T12:46:03.056Z,1008.79
2022-12-26T12:52:26.022Z,1008.79
2022-12-26T12:58:45.991Z,1008.77
2022-12-26T13:05:08.993Z,1008.77
2022-12-26T13:11:29.050Z,1008.81
2022-12-26T13:17:51.991Z,1008.79
2022-12-26T13:24:12.027Z,1008.75
2022-12-26T13:30:35.041Z,1008.79
2022-12-26T13:36:54.978Z,1008.81
2022-12-26T13:43:18.008Z,1008.77
2022-12-26T13:49:38.024Z,1008.75
2022-12-26T13:56:01.011Z,1008.71
2022-12-26T14:02:22.729Z,1008.71
2022-12-26T14:08:44.908Z,1008.73
2022-12-26T14:15:03.988Z,1009.02
2022-12-26T14:21:27.003Z,1009.1
2022-12-26T14:27:47.032Z,1009.24
2022-12-26T14:34:10.810Z,1009.3
2022-12-26T14:40:30.012Z,1009.45
2022-12-26T14:46:53.009Z,1009.59
2022-12-26T14:53:13.027Z,1009.63
2022-12-26T14:59:35.989Z,1009.65
2022-12-26T15:05:56.027Z,1009.71
2022-12-26T15:12:19.025Z,1009.82
2022-12-26T15:18:42.888Z,1009.88
2022-12-26T15:25:18.493Z,1010.02
2022-12-26T15:48:08.497Z,1010.39
2022-12-26T15:54:27.971Z,1010.53
2022-12-26T16:00:50.984Z,1010.75
2022-12-26T16:07:11.032Z,1010.85
2022-12-26T16:13:34.035Z,1010.99
2022-12-26T16:19:54.011Z,1011.1
2022-12-26T16:26:17.032Z,1011.12
2022-12-26T16:32:37.018Z,1011.16
2022-12-26T16:39:00.005Z,1011.3
2022-12-26T16:45:20.029Z,1011.44
2022-12-26T16:51:43.253Z,1011.55
2022-12-26T16:58:02.988Z,1011.65
2022-12-26T17:04:26.049Z,1011.73
2022-12-26T17:10:45.997Z,1011.87
2022-12-26T17:17:09.054Z,1012
2022-12-26T17:23:29.113Z,1012.1
2022-12-26T17:29:52.013Z,1012.24
2022-12-26T17:42:35.005Z,1012.42
2022-12-26T17:48:54.982Z,1012.51
2022-12-26T17:55:17.995Z,1012.61
2022-12-26T18:01:38.212Z,1012.67
2022-12-26T18:08:01.011Z,1012.79
2022-12-26T18:14:20.973Z,1012.92
2022-12-26T18:20:44.019Z,1013.02
2022-12-26T18:27:04.004Z,1013.27
2022-12-26T18:33:26.990Z,1013.48
2022-12-26T18:39:47.019Z,1013.64
2022-12-26T18:46:10.017Z,1013.85
2022-12-26T18:52:29.999Z,1014.01
2022-12-26T18:58:57.676Z,1014.17
2022-12-26T19:05:13.002Z,1014.24
2022-12-26T19:11:35.994Z,1014.44
2022-12-26T19:17:56.034Z,1014.58
2022-12-26T19:24:19.015Z,1014.66
2022-12-26T19:30:39.386Z,1014.81
2022-12-26T19:37:02.043Z,1014.91
2022-12-26T19:43:22.037Z,1015.03
2022-12-26T19:49:45.008Z,1015.15
2022-12-26T19:56:05.030Z,1015.26
2022-12-26T20:02:28.157Z,1015.28
2022-12-26T20:08:48.001Z,1015.42
2022-12-26T20:15:11.067Z,1015.48
2022-12-26T20:21:30.993Z,1015.63
2022-12-26T20:27:53.986Z,1015.8
2022-12-26T20:34:14.028Z,1015.9
2022-12-26T20:57:37.983Z,1016.17
2022-12-26T21:04:00.984Z,1016.27
2022-12-26T21:10:21.001Z,1016.37
2022-12-26T21:16:44.083Z,1016.48
2022-12-26T21:23:04.005Z,1016.56
2022-12-26T21:29:27.008Z,1016.62
2022-12-26T21:35:47.021Z,1016.68
2022-12-26T21:42:10.011Z,1016.76
2022-12-26T21:48:29.988Z,1016.8
2022-12-26T21:54:53.105Z,1016.88
2022-12-26T22:01:13.104Z,1016.97
2022-12-26T22:07:36.032Z,1017.07
2022-12-26T22:13:56.008Z,1017.11
2022-12-26T22:20:19.050Z,1017.13
2022-12-26T22:26:38.971Z,1017.21
2022-12-26T22:33:02.086Z,1017.21
2022-12-26T22:39:21.988Z,1017.29
2022-12-26T22:45:45.002Z,1017.38
2022-12-26T22:52:05.047Z,1017.42
2022-12-26T22:58:28.033Z,1017.44
2022-12-26T23:21:24.996Z,1017.64
2022-12-26T23:27:44.979Z,1017.68
2022-12-26T23:34:08.002Z,1017.72
2022-12-26T23:40:28.002Z,1017.76
2022-12-26T23:46:51.024Z,1017.81
2022-12-26T23:53:10.979Z,1017.81
2022-12-26T23:59:34.025Z,1017.83
